sensor_id;sensor_type;location;lat;lon;timestamp;P1;durP1;ratioP1;P2;durP2;ratioP2
16502;SDS011;53067;48.114;11.694;2023-02-15T00:02:00;33.27;;;11.80;;
16502;SDS011;53067;48.114;11.694;2023-02-15T00:04:28;39.40;;;13.17;;
16502;SDS011;53067;48.114;11.694;2023-02-15T00:07:14;46.67;;;12.60;;
16502;SDS011;53067;48.114;11.694;2023-02-15T00:09:54;30.83;;;11.63;;
16502;SDS011;53067;48.114;11.694;2023-02-15T00:12:21;33.53;;;11.83;;
16502;SDS011;53067;48.114;11.694;2023-02-15T00:14:49;36.47;;;11.70;;
16502;SDS011;53067;48.114;11.694;2023-02-15T00:17:16;39.17;;;12.03;;
16502;SDS011;53067;48.114;11.694;2023-02-15T00:19:44;21.80;;;11.37;;
16502;SDS011;53067;48.114;11.694;2023-02-15T00:22:11;42.10;;;13.00;;
16502;SDS011;53067;48.114;11.694;2023-02-15T00:24:39;25.43;;;11.67;;
16502;SDS011;53067;48.114;11.694;2023-02-15T00:27:06;28.80;;;12.20;;
16502;SDS011;53067;48.114;11.694;2023-02-15T00:29:34;36.67;;;11.37;;
16502;SDS011;53067;48.114;11.694;2023-02-15T00:32:02;25.70;;;11.20;;
16502;SDS011;53067;48.114;11.694;2023-02-15T00:34:30;22.10;;;11.07;;
16502;SDS011;53067;48.114;11.694;2023-02-15T00:36:57;30.43;;;10.47;;
16502;SDS011;53067;48.114;11.694;2023-02-15T00:39:25;16.93;;;9.90;;
16502;SDS011;53067;48.114;11.694;2023-02-15T00:41:54;23.57;;;10.43;;
16502;SDS011;53067;48.114;11.694;2023-02-15T00:44:22;27.13;;;11.37;;
16502;SDS011;53067;48.114;11.694;2023-02-15T00:46:49;22.93;;;10.77;;
16502;SDS011;53067;48.114;11.694;2023-02-15T00:49:17;28.40;;;9.97;;
16502;SDS011;53067;48.114;11.694;2023-02-15T00:51:44;27.03;;;9.90;;
16502;SDS011;53067;48.114;11.694;2023-02-15T00:54:12;19.37;;;10.27;;
16502;SDS011;53067;48.114;11.694;2023-02-15T00:56:39;38.27;;;11.23;;
16502;SDS011;53067;48.114;11.694;2023-02-15T00:59:08;55.50;;;11.20;;
16502;SDS011;53067;48.114;11.694;2023-02-15T01:01:35;17.40;;;10.13;;
16502;SDS011;53067;48.114;11.694;2023-02-15T01:04:03;16.17;;;9.63;;
16502;SDS011;53067;48.114;11.694;2023-02-15T01:06:31;35.23;;;10.43;;
16502;SDS011;53067;48.114;11.694;2023-02-15T01:08:58;17.27;;;10.17;;
16502;SDS011;53067;48.114;11.694;2023-02-15T01:11:26;28.03;;;11.47;;
16502;SDS011;53067;48.114;11.694;2023-02-15T01:13:54;31.77;;;10.70;;
16502;SDS011;53067;48.114;11.694;2023-02-15T01:16:24;21.03;;;10.53;;
16502;SDS011;53067;48.114;11.694;2023-02-15T01:18:54;26.13;;;10.57;;
16502;SDS011;53067;48.114;11.694;2023-02-15T01:21:23;39.00;;;10.80;;
16502;SDS011;53067;48.114;11.694;2023-02-15T01:23:52;26.53;;;10.73;;
16502;SDS011;53067;48.114;11.694;2023-02-15T01:26:19;20.53;;;10.90;;
16502;SDS011;53067;48.114;11.694;2023-02-15T01:28:47;20.07;;;10.00;;
16502;SDS011;53067;48.114;11.694;2023-02-15T01:31:15;37.90;;;10.83;;
16502;SDS011;53067;48.114;11.694;2023-02-15T01:33:45;27.73;;;10.07;;
16502;SDS011;53067;48.114;11.694;2023-02-15T01:36:13;18.60;;;10.17;;
16502;SDS011;53067;48.114;11.694;2023-02-15T01:38:43;18.77;;;10.63;;
16502;SDS011;53067;48.114;11.694;2023-02-15T01:41:11;24.63;;;10.73;;
16502;SDS011;53067;48.114;11.694;2023-02-15T01:43:50;44.47;;;11.03;;
16502;SDS011;53067;48.114;11.694;2023-02-15T01:46:24;49.40;;;11.80;;
16502;SDS011;53067;48.114;11.694;2023-02-15T01:49:03;38.97;;;11.37;;
16502;SDS011;53067;48.114;11.694;2023-02-15T01:51:34;18.80;;;10.17;;
16502;SDS011;53067;48.114;11.694;2023-02-15T01:54:10;16.97;;;10.53;;
16502;SDS011;53067;48.114;11.694;2023-02-15T01:56:39;21.33;;;10.53;;
16502;SDS011;53067;48.114;11.694;2023-02-15T01:59:09;40.43;;;10.93;;
16502;SDS011;53067;48.114;11.694;2023-02-15T02:01:39;27.90;;;10.87;;
16502;SDS011;53067;48.114;11.694;2023-02-15T02:04:15;53.77;;;12.27;;
16502;SDS011;53067;48.114;11.694;2023-02-15T02:06:49;51.93;;;12.07;;
16502;SDS011;53067;48.114;11.694;2023-02-15T02:09:18;39.47;;;10.70;;
16502;SDS011;53067;48.114;11.694;2023-02-15T02:11:46;23.87;;;10.00;;
16502;SDS011;53067;48.114;11.694;2023-02-15T02:14:15;21.63;;;9.93;;
16502;SDS011;53067;48.114;11.694;2023-02-15T02:16:52;25.73;;;10.53;;
16502;SDS011;53067;48.114;11.694;2023-02-15T02:30:49;15.37;;;9.30;;
16502;SDS011;53067;48.114;11.694;2023-02-15T02:33:28;20.50;;;9.83;;
16502;SDS011;53067;48.114;11.694;2023-02-15T02:36:15;21.40;;;9.67;;
16502;SDS011;53067;48.114;11.694;2023-02-15T02:38:48;15.10;;;9.30;;
16502;SDS011;53067;48.114;11.694;2023-02-15T02:41:30;45.43;;;10.73;;
16502;SDS011;53067;48.114;11.694;2023-02-15T02:43:59;24.80;;;10.30;;
16502;SDS011;53067;48.114;11.694;2023-02-15T02:46:47;29.97;;;9.87;;
16502;SDS011;53067;48.114;11.694;2023-02-15T02:49:31;36.03;;;10.33;;
16502;SDS011;53067;48.114;11.694;2023-02-15T02:52:05;23.50;;;10.10;;
16502;SDS011;53067;48.114;11.694;2023-02-15T02:54:34;33.23;;;10.17;;
16502;SDS011;53067;48.114;11.694;2023-02-15T02:57:03;25.30;;;8.80;;
16502;SDS011;53067;48.114;11.694;2023-02-15T02:59:41;11.73;;;8.87;;
16502;SDS011;53067;48.114;11.694;2023-02-15T03:02:06;16.50;;;8.97;;
16502;SDS011;53067;48.114;11.694;2023-02-15T03:04:37;23.33;;;9.27;;
16502;SDS011;53067;48.114;11.694;2023-02-15T03:07:09;21.00;;;9.27;;
16502;SDS011;53067;48.114;11.694;2023-02-15T03:09:39;17.47;;;8.23;;
16502;SDS011;53067;48.114;11.694;2023-02-15T03:12:22;10.03;;;8.50;;
16502;SDS011;53067;48.114;11.694;2023-02-15T03:14:53;10.93;;;7.57;;
16502;SDS011;53067;48.114;11.694;2023-02-15T03:17:22;21.30;;;8.33;;
16502;SDS011;53067;48.114;11.694;2023-02-15T03:19:52;17.20;;;8.17;;
16502;SDS011;53067;48.114;11.694;2023-02-15T03:22:25;22.27;;;8.57;;
16502;SDS011;53067;48.114;11.694;2023-02-15T03:24:56;20.87;;;8.47;;
16502;SDS011;53067;48.114;11.694;2023-02-15T03:27:26;26.50;;;8.57;;
16502;SDS011;53067;48.114;11.694;2023-02-15T03:29:55;15.30;;;8.30;;
16502;SDS011;53067;48.114;11.694;2023-02-15T03:32:26;14.90;;;8.60;;
16502;SDS011;53067;48.114;11.694;2023-02-15T03:34:56;29.90;;;8.27;;
16502;SDS011;53067;48.114;11.694;2023-02-15T03:37:35;15.57;;;7.90;;
16502;SDS011;53067;48.114;11.694;2023-02-15T03:43:10;33.10;;;8.80;;
16502;SDS011;53067;48.114;11.694;2023-02-15T03:45:40;21.67;;;8.50;;
16502;SDS011;53067;48.114;11.694;2023-02-15T03:48:12;18.33;;;8.43;;
16502;SDS011;53067;48.114;11.694;2023-02-15T03:50:41;10.93;;;8.20;;
16502;SDS011;53067;48.114;11.694;2023-02-15T03:53:26;46.43;;;10.60;;
16502;SDS011;53067;48.114;11.694;2023-02-15T03:55:54;21.00;;;8.30;;
16502;SDS011;53067;48.114;11.694;2023-02-15T03:58:22;15.60;;;8.93;;
16502;SDS011;53067;48.114;11.694;2023-02-15T04:01:13;15.27;;;8.63;;
16502;SDS011;53067;48.114;11.694;2023-02-15T04:07:03;18.97;;;8.60;;
16502;SDS011;53067;48.114;11.694;2023-02-15T04:09:33;17.03;;;8.63;;
16502;SDS011;53067;48.114;11.694;2023-02-15T04:12:19;16.87;;;9.33;;
16502;SDS011;53067;48.114;11.694;2023-02-15T04:14:46;27.70;;;9.10;;
16502;SDS011;53067;48.114;11.694;2023-02-15T04:17:32;27.67;;;9.47;;
16502;SDS011;53067;48.114;11.694;2023-02-15T04:19:59;11.30;;;8.07;;
16502;SDS011;53067;48.114;11.694;2023-02-15T04:22:45;12.13;;;8.20;;
16502;SDS011;53067;48.114;11.694;2023-02-15T04:25:30;15.20;;;9.13;;
16502;SDS011;53067;48.114;11.694;2023-02-15T04:27:58;20.40;;;8.83;;
16502;SDS011;53067;48.114;11.694;2023-02-15T04:30:25;21.07;;;9.37;;
16502;SDS011;53067;48.114;11.694;2023-02-15T04:32:53;16.57;;;9.20;;
16502;SDS011;53067;48.114;11.694;2023-02-15T04:35:22;17.20;;;8.90;;
16502;SDS011;53067;48.114;11.694;2023-02-15T04:37:51;18.60;;;9.20;;
16502;SDS011;53067;48.114;11.694;2023-02-15T04:40:18;15.63;;;8.90;;
16502;SDS011;53067;48.114;11.694;2023-02-15T04:42:49;18.67;;;9.30;;
16502;SDS011;53067;48.114;11.694;2023-02-15T04:45:17;22.40;;;10.03;;
16502;SDS011;53067;48.114;11.694;2023-02-15T04:47:45;16.30;;;10.17;;
16502;SDS011;53067;48.114;11.694;2023-02-15T04:50:12;11.53;;;9.17;;
16502;SDS011;53067;48.114;11.694;2023-02-15T04:52:40;12.57;;;8.90;;
16502;SDS011;53067;48.114;11.694;2023-02-15T04:55:07;12.93;;;8.80;;
16502;SDS011;53067;48.114;11.694;2023-02-15T04:57:35;17.50;;;9.43;;
16502;SDS011;53067;48.114;11.694;2023-02-15T05:00:02;18.23;;;9.23;;
16502;SDS011;53067;48.114;11.694;2023-02-15T05:02:51;11.80;;;8.80;;
16502;SDS011;53067;48.114;11.694;2023-02-15T05:05:18;13.63;;;8.60;;
16502;SDS011;53067;48.114;11.694;2023-02-15T05:07:46;21.30;;;9.77;;
16502;SDS011;53067;48.114;11.694;2023-02-15T05:10:13;23.83;;;9.67;;
16502;SDS011;53067;48.114;11.694;2023-02-15T05:12:41;56.40;;;12.77;;
16502;SDS011;53067;48.114;11.694;2023-02-15T05:15:09;22.00;;;9.63;;
16502;SDS011;53067;48.114;11.694;2023-02-15T05:17:36;27.63;;;9.87;;
16502;SDS011;53067;48.114;11.694;2023-02-15T05:20:04;11.97;;;9.67;;
16502;SDS011;53067;48.114;11.694;2023-02-15T05:22:32;13.50;;;9.30;;
16502;SDS011;53067;48.114;11.694;2023-02-15T05:25:00;20.90;;;9.53;;
16502;SDS011;53067;48.114;11.694;2023-02-15T05:27:45;24.63;;;10.57;;
16502;SDS011;53067;48.114;11.694;2023-02-15T05:30:31;28.97;;;10.00;;
16502;SDS011;53067;48.114;11.694;2023-02-15T05:32:59;19.57;;;10.20;;
16502;SDS011;53067;48.114;11.694;2023-02-15T05:35:26;13.87;;;9.63;;
16502;SDS011;53067;48.114;11.694;2023-02-15T05:37:54;11.67;;;8.90;;
16502;SDS011;53067;48.114;11.694;2023-02-15T05:40:21;17.53;;;9.90;;
16502;SDS011;53067;48.114;11.694;2023-02-15T05:42:49;11.53;;;8.97;;
16502;SDS011;53067;48.114;11.694;2023-02-15T05:45:16;20.70;;;8.97;;
16502;SDS011;53067;48.114;11.694;2023-02-15T05:47:44;19.70;;;9.37;;
16502;SDS011;53067;48.114;11.694;2023-02-15T05:50:11;15.70;;;9.23;;
16502;SDS011;53067;48.114;11.694;2023-02-15T05:52:39;35.47;;;10.43;;
16502;SDS011;53067;48.114;11.694;2023-02-15T05:55:07;13.63;;;8.83;;
16502;SDS011;53067;48.114;11.694;2023-02-15T05:57:35;19.00;;;9.93;;
16502;SDS011;53067;48.114;11.694;2023-02-15T06:00:03;11.20;;;9.37;;
16502;SDS011;53067;48.114;11.694;2023-02-15T06:02:34;13.57;;;9.30;;
16502;SDS011;53067;48.114;11.694;2023-02-15T06:05:03;14.43;;;9.30;;
16502;SDS011;53067;48.114;11.694;2023-02-15T06:07:31;14.73;;;9.30;;
16502;SDS011;53067;48.114;11.694;2023-02-15T06:09:59;16.70;;;9.13;;
16502;SDS011;53067;48.114;11.694;2023-02-15T06:12:26;13.60;;;9.33;;
16502;SDS011;53067;48.114;11.694;2023-02-15T06:14:54;28.83;;;8.97;;
16502;SDS011;53067;48.114;11.694;2023-02-15T06:17:21;15.87;;;8.60;;
16502;SDS011;53067;48.114;11.694;2023-02-15T06:19:49;12.13;;;8.57;;
16502;SDS011;53067;48.114;11.694;2023-02-15T06:22:16;17.13;;;9.00;;
16502;SDS011;53067;48.114;11.694;2023-02-15T06:24:44;13.20;;;7.83;;
16502;SDS011;53067;48.114;11.694;2023-02-15T06:27:11;15.97;;;8.20;;
16502;SDS011;53067;48.114;11.694;2023-02-15T06:29:39;13.83;;;8.13;;
16502;SDS011;53067;48.114;11.694;2023-02-15T06:32:07;10.97;;;8.03;;
16502;SDS011;53067;48.114;11.694;2023-02-15T06:34:34;10.67;;;8.10;;
16502;SDS011;53067;48.114;11.694;2023-02-15T06:37:02;10.63;;;8.30;;
16502;SDS011;53067;48.114;11.694;2023-02-15T06:39:29;13.43;;;7.50;;
16502;SDS011;53067;48.114;11.694;2023-02-15T06:41:57;13.07;;;8.30;;
16502;SDS011;53067;48.114;11.694;2023-02-15T06:44:24;10.20;;;8.43;;
16502;SDS011;53067;48.114;11.694;2023-02-15T06:46:52;15.70;;;7.70;;
16502;SDS011;53067;48.114;11.694;2023-02-15T06:49:20;10.83;;;8.40;;
16502;SDS011;53067;48.114;11.694;2023-02-15T06:51:47;14.43;;;8.93;;
16502;SDS011;53067;48.114;11.694;2023-02-15T06:54:15;11.13;;;8.50;;
16502;SDS011;53067;48.114;11.694;2023-02-15T06:56:42;8.83;;;7.60;;
16502;SDS011;53067;48.114;11.694;2023-02-15T06:59:10;9.33;;;8.30;;
16502;SDS011;53067;48.114;11.694;2023-02-15T07:01:37;10.07;;;7.93;;
16502;SDS011;53067;48.114;11.694;2023-02-15T07:04:05;10.17;;;8.57;;
16502;SDS011;53067;48.114;11.694;2023-02-15T07:06:33;13.83;;;9.53;;
16502;SDS011;53067;48.114;11.694;2023-02-15T07:09:01;27.53;;;10.00;;
16502;SDS011;53067;48.114;11.694;2023-02-15T07:11:29;11.63;;;8.80;;
16502;SDS011;53067;48.114;11.694;2023-02-15T07:14:15;10.73;;;8.47;;
16502;SDS011;53067;48.114;11.694;2023-02-15T07:16:43;12.17;;;8.40;;
16502;SDS011;53067;48.114;11.694;2023-02-15T07:19:10;13.07;;;9.03;;
16502;SDS011;53067;48.114;11.694;2023-02-15T07:21:38;19.63;;;9.83;;
16502;SDS011;53067;48.114;11.694;2023-02-15T07:24:05;14.40;;;8.90;;
16502;SDS011;53067;48.114;11.694;2023-02-15T07:26:33;12.40;;;9.63;;
16502;SDS011;53067;48.114;11.694;2023-02-15T07:29:01;15.60;;;9.03;;
16502;SDS011;53067;48.114;11.694;2023-02-15T07:31:28;12.23;;;9.30;;
16502;SDS011;53067;48.114;11.694;2023-02-15T07:33:56;13.43;;;9.43;;
16502;SDS011;53067;48.114;11.694;2023-02-15T07:36:24;15.17;;;9.00;;
16502;SDS011;53067;48.114;11.694;2023-02-15T07:38:51;14.73;;;9.80;;
16502;SDS011;53067;48.114;11.694;2023-02-15T07:41:19;11.60;;;8.47;;
16502;SDS011;53067;48.114;11.694;2023-02-15T07:43:46;15.43;;;8.73;;
16502;SDS011;53067;48.114;11.694;2023-02-15T07:46:14;10.70;;;8.93;;
16502;SDS011;53067;48.114;11.694;2023-02-15T07:48:43;12.03;;;8.77;;
16502;SDS011;53067;48.114;11.694;2023-02-15T07:51:13;12.50;;;9.00;;
16502;SDS011;53067;48.114;11.694;2023-02-15T07:53:42;11.47;;;9.03;;
16502;SDS011;53067;48.114;11.694;2023-02-15T07:56:10;15.47;;;10.23;;
16502;SDS011;53067;48.114;11.694;2023-02-15T07:58:39;26.10;;;10.00;;
16502;SDS011;53067;48.114;11.694;2023-02-15T08:01:21;15.50;;;9.53;;
16502;SDS011;53067;48.114;11.694;2023-02-15T08:03:59;11.37;;;9.47;;
16502;SDS011;53067;48.114;11.694;2023-02-15T08:06:29;12.63;;;9.13;;
16502;SDS011;53067;48.114;11.694;2023-02-15T08:08:58;13.83;;;9.27;;
16502;SDS011;53067;48.114;11.694;2023-02-15T08:11:27;11.93;;;9.37;;
16502;SDS011;53067;48.114;11.694;2023-02-15T08:16:48;10.57;;;8.80;;
16502;SDS011;53067;48.114;11.694;2023-02-15T08:19:17;12.03;;;8.70;;
16502;SDS011;53067;48.114;11.694;2023-02-15T08:21:51;10.67;;;8.53;;
16502;SDS011;53067;48.114;11.694;2023-02-15T08:24:22;10.40;;;8.30;;
16502;SDS011;53067;48.114;11.694;2023-02-15T08:26:52;11.07;;;8.17;;
16502;SDS011;53067;48.114;11.694;2023-02-15T08:29:23;11.63;;;9.40;;
16502;SDS011;53067;48.114;11.694;2023-02-15T08:31:54;12.13;;;9.30;;
16502;SDS011;53067;48.114;11.694;2023-02-15T08:34:28;11.60;;;8.90;;
16502;SDS011;53067;48.114;11.694;2023-02-15T08:36:57;11.87;;;9.43;;
16502;SDS011;53067;48.114;11.694;2023-02-15T08:39:25;11.83;;;9.30;;
16502;SDS011;53067;48.114;11.694;2023-02-15T08:41:53;10.87;;;8.67;;
16502;SDS011;53067;48.114;11.694;2023-02-15T08:44:21;11.73;;;9.57;;
16502;SDS011;53067;48.114;11.694;2023-02-15T08:46:48;10.47;;;9.13;;
16502;SDS011;53067;48.114;11.694;2023-02-15T08:49:17;11.13;;;8.93;;
16502;SDS011;53067;48.114;11.694;2023-02-15T08:51:47;14.47;;;9.73;;
16502;SDS011;53067;48.114;11.694;2023-02-15T08:54:17;10.43;;;9.20;;
16502;SDS011;53067;48.114;11.694;2023-02-15T08:56:47;10.63;;;8.93;;
16502;SDS011;53067;48.114;11.694;2023-02-15T08:59:19;10.83;;;8.70;;
16502;SDS011;53067;48.114;11.694;2023-02-15T09:01:48;10.07;;;9.07;;
16502;SDS011;53067;48.114;11.694;2023-02-15T09:04:18;11.80;;;8.30;;
16502;SDS011;53067;48.114;11.694;2023-02-15T09:06:47;9.20;;;8.30;;
16502;SDS011;53067;48.114;11.694;2023-02-15T09:09:16;9.40;;;8.33;;
16502;SDS011;53067;48.114;11.694;2023-02-15T09:11:45;10.27;;;8.67;;
16502;SDS011;53067;48.114;11.694;2023-02-15T09:14:15;9.47;;;7.77;;
16502;SDS011;53067;48.114;11.694;2023-02-15T09:16:47;9.37;;;8.37;;
16502;SDS011;53067;48.114;11.694;2023-02-15T09:19:17;9.43;;;7.80;;
16502;SDS011;53067;48.114;11.694;2023-02-15T09:21:46;9.10;;;7.77;;
16502;SDS011;53067;48.114;11.694;2023-02-15T09:24:15;11.17;;;8.30;;
16502;SDS011;53067;48.114;11.694;2023-02-15T09:26:44;8.70;;;7.90;;
16502;SDS011;53067;48.114;11.694;2023-02-15T09:29:19;7.30;;;6.63;;
16502;SDS011;53067;48.114;11.694;2023-02-15T09:31:49;8.10;;;7.10;;
16502;SDS011;53067;48.114;11.694;2023-02-15T09:34:17;8.43;;;7.63;;
16502;SDS011;53067;48.114;11.694;2023-02-15T09:36:47;9.23;;;7.50;;
16502;SDS011;53067;48.114;11.694;2023-02-15T09:39:16;9.27;;;7.67;;
16502;SDS011;53067;48.114;11.694;2023-02-15T09:50:13;10.07;;;8.10;;
16502;SDS011;53067;48.114;11.694;2023-02-15T09:55:50;9.17;;;7.57;;
16502;SDS011;53067;48.114;11.694;2023-02-15T09:58:39;8.93;;;7.63;;
16502;SDS011;53067;48.114;11.694;2023-02-15T10:01:28;8.77;;;7.87;;
16502;SDS011;53067;48.114;11.694;2023-02-15T10:10:39;8.23;;;7.40;;
16502;SDS011;53067;48.114;11.694;2023-02-15T10:12:52;8.33;;;7.43;;
16502;SDS011;53067;48.114;11.694;2023-02-15T10:18:01;8.97;;;8.03;;
16502;SDS011;53067;48.114;11.694;2023-02-15T10:20:32;9.03;;;8.10;;
16502;SDS011;53067;48.114;11.694;2023-02-15T10:23:18;9.17;;;8.20;;
16502;SDS011;53067;48.114;11.694;2023-02-15T10:28:18;9.30;;;8.33;;
16502;SDS011;53067;48.114;11.694;2023-02-15T10:30:59;9.40;;;8.37;;
16502;SDS011;53067;48.114;11.694;2023-02-15T10:33:41;9.23;;;8.33;;
16502;SDS011;53067;48.114;11.694;2023-02-15T10:45:13;13.57;;;8.73;;
16502;SDS011;53067;48.114;11.694;2023-02-15T10:47:23;11.53;;;7.70;;
16502;SDS011;53067;48.114;11.694;2023-02-15T10:55:25;8.63;;;7.85;;
16502;SDS011;53067;48.114;11.694;2023-02-15T10:58:12;7.87;;;7.00;;
16502;SDS011;53067;48.114;11.694;2023-02-15T11:03:28;9.80;;;8.80;;
16502;SDS011;53067;48.114;11.694;2023-02-15T11:06:06;9.68;;;8.58;;
16502;SDS011;53067;48.114;11.694;2023-02-15T11:08:42;8.78;;;8.05;;
16502;SDS011;53067;48.114;11.694;2023-02-15T11:11:38;10.13;;;8.80;;
16502;SDS011;53067;48.114;11.694;2023-02-15T11:14:11;9.73;;;8.85;;
16502;SDS011;53067;48.114;11.694;2023-02-15T11:16:46;9.40;;;8.60;;
16502;SDS011;53067;48.114;11.694;2023-02-15T11:19:21;9.95;;;9.15;;
16502;SDS011;53067;48.114;11.694;2023-02-15T11:21:59;9.63;;;8.75;;
16502;SDS011;53067;48.114;11.694;2023-02-15T11:24:30;8.93;;;7.75;;
16502;SDS011;53067;48.114;11.694;2023-02-15T11:27:02;9.43;;;8.53;;
16502;SDS011;53067;48.114;11.694;2023-02-15T11:29:36;9.28;;;8.53;;
16502;SDS011;53067;48.114;11.694;2023-02-15T11:32:18;9.53;;;8.73;;
16502;SDS011;53067;48.114;11.694;2023-02-15T11:34:49;9.50;;;8.60;;
16502;SDS011;53067;48.114;11.694;2023-02-15T11:37:24;9.95;;;9.05;;
16502;SDS011;53067;48.114;11.694;2023-02-15T11:39:57;9.78;;;8.88;;
16502;SDS011;53067;48.114;11.694;2023-02-15T11:42:26;10.40;;;8.88;;
16502;SDS011;53067;48.114;11.694;2023-02-15T11:45:21;10.58;;;9.50;;
16502;SDS011;53067;48.114;11.694;2023-02-15T11:47:33;9.45;;;8.53;;
16502;SDS011;53067;48.114;11.694;2023-02-15T11:50:00;11.48;;;9.03;;
16502;SDS011;53067;48.114;11.694;2023-02-15T11:52:28;10.30;;;9.10;;
16502;SDS011;53067;48.114;11.694;2023-02-15T11:54:56;9.70;;;8.80;;
16502;SDS011;53067;48.114;11.694;2023-02-15T11:57:28;12.03;;;9.28;;
16502;SDS011;53067;48.114;11.694;2023-02-15T12:00:02;9.28;;;8.43;;
16502;SDS011;53067;48.114;11.694;2023-02-15T12:02:31;10.20;;;9.30;;
16502;SDS011;53067;48.114;11.694;2023-02-15T12:05:13;8.80;;;8.10;;
16502;SDS011;53067;48.114;11.694;2023-02-15T12:07:36;9.18;;;8.48;;
16502;SDS011;53067;48.114;11.694;2023-02-15T12:10:29;9.18;;;8.48;;
16502;SDS011;53067;48.114;11.694;2023-02-15T12:15:46;10.32;;;8.45;;
16502;SDS011;53067;48.114;11.694;2023-02-15T12:21:09;9.75;;;8.45;;
16502;SDS011;53067;48.114;11.694;2023-02-15T12:23:42;9.13;;;8.30;;
16502;SDS011;53067;48.114;11.694;2023-02-15T12:29:12;8.85;;;8.00;;
16502;SDS011;53067;48.114;11.694;2023-02-15T12:31:41;8.70;;;8.03;;
16502;SDS011;53067;48.114;11.694;2023-02-15T12:34:12;9.33;;;8.53;;
16502;SDS011;53067;48.114;11.694;2023-02-15T12:36:52;9.23;;;8.43;;
16502;SDS011;53067;48.114;11.694;2023-02-15T12:39:27;9.63;;;8.78;;
16502;SDS011;53067;48.114;11.694;2023-02-15T12:42:03;11.08;;;8.93;;
16502;SDS011;53067;48.114;11.694;2023-02-15T12:44:33;10.55;;;8.88;;
16502;SDS011;53067;48.114;11.694;2023-02-15T12:50:05;9.65;;;8.88;;
16502;SDS011;53067;48.114;11.694;2023-02-15T12:52:35;9.75;;;8.88;;
16502;SDS011;53067;48.114;11.694;2023-02-15T12:55:23;13.50;;;9.90;;
16502;SDS011;53067;48.114;11.694;2023-02-15T12:57:49;10.00;;;8.80;;
16502;SDS011;53067;48.114;11.694;2023-02-15T13:00:34;9.28;;;8.48;;
16502;SDS011;53067;48.114;11.694;2023-02-15T13:03:03;9.38;;;8.48;;
16502;SDS011;53067;48.114;11.694;2023-02-15T13:05:37;9.03;;;8.28;;
16502;SDS011;53067;48.114;11.694;2023-02-15T13:08:17;11.08;;;8.95;;
16502;SDS011;53067;48.114;11.694;2023-02-15T13:10:56;10.08;;;9.08;;
16502;SDS011;53067;48.114;11.694;2023-02-15T13:13:38;9.60;;;8.70;;
16502;SDS011;53067;48.114;11.694;2023-02-15T13:16:04;9.65;;;8.68;;
16502;SDS011;53067;48.114;11.694;2023-02-15T13:18:34;9.53;;;8.68;;
16502;SDS011;53067;48.114;11.694;2023-02-15T13:21:09;10.00;;;9.00;;
16502;SDS011;53067;48.114;11.694;2023-02-15T13:24:00;9.93;;;9.13;;
16502;SDS011;53067;48.114;11.694;2023-02-15T13:26:26;10.70;;;9.40;;
16502;SDS011;53067;48.114;11.694;2023-02-15T13:28:58;10.50;;;8.65;;
16502;SDS011;53067;48.114;11.694;2023-02-15T13:31:27;12.98;;;9.23;;
16502;SDS011;53067;48.114;11.694;2023-02-15T13:34:11;11.68;;;9.55;;
16502;SDS011;53067;48.114;11.694;2023-02-15T13:36:54;9.85;;;8.85;;
16502;SDS011;53067;48.114;11.694;2023-02-15T13:39:49;11.68;;;9.80;;
16502;SDS011;53067;48.114;11.694;2023-02-15T13:42:27;14.85;;;12.70;;
16502;SDS011;53067;48.114;11.694;2023-02-15T13:48:20;14.13;;;10.28;;
16502;SDS011;53067;48.114;11.694;2023-02-15T13:51:00;12.13;;;10.40;;
16502;SDS011;53067;48.114;11.694;2023-02-15T14:04:59;12.53;;;11.20;;
16502;SDS011;53067;48.114;11.694;2023-02-15T14:13:11;12.10;;;10.27;;
16502;SDS011;53067;48.114;11.694;2023-02-15T14:18:25;13.57;;;11.40;;
16502;SDS011;53067;48.114;11.694;2023-02-15T14:20:57;12.80;;;11.33;;
16502;SDS011;53067;48.114;11.694;2023-02-15T14:26:18;12.83;;;10.33;;
16502;SDS011;53067;48.114;11.694;2023-02-15T14:31:38;11.43;;;10.23;;
16502;SDS011;53067;48.114;11.694;2023-02-15T14:34:11;12.53;;;11.23;;
16502;SDS011;53067;48.114;11.694;2023-02-15T14:36:37;11.60;;;10.07;;
16502;SDS011;53067;48.114;11.694;2023-02-15T14:39:16;15.50;;;11.40;;
16502;SDS011;53067;48.114;11.694;2023-02-15T14:41:48;13.00;;;10.63;;
16502;SDS011;53067;48.114;11.694;2023-02-15T14:44:27;13.87;;;11.70;;
16502;SDS011;53067;48.114;11.694;2023-02-15T14:49:37;12.73;;;11.10;;
16502;SDS011;53067;48.114;11.694;2023-02-15T14:52:09;16.27;;;11.93;;
16502;SDS011;53067;48.114;11.694;2023-02-15T14:59:50;16.37;;;11.80;;
16502;SDS011;53067;48.114;11.694;2023-02-15T15:08:03;15.20;;;12.20;;
16502;SDS011;53067;48.114;11.694;2023-02-15T15:10:36;14.13;;;12.10;;
16502;SDS011;53067;48.114;11.694;2023-02-15T15:13:51;17.17;;;13.20;;
16502;SDS011;53067;48.114;11.694;2023-02-15T15:15:51;15.37;;;11.57;;
16502;SDS011;53067;48.114;11.694;2023-02-15T15:21:41;13.70;;;11.13;;
16502;SDS011;53067;48.114;11.694;2023-02-15T15:23:59;14.67;;;12.20;;
16502;SDS011;53067;48.114;11.694;2023-02-15T15:26:31;16.63;;;13.07;;
16502;SDS011;53067;48.114;11.694;2023-02-15T15:28:59;14.97;;;11.87;;
16502;SDS011;53067;48.114;11.694;2023-02-15T15:37:24;16.83;;;13.13;;
16502;SDS011;53067;48.114;11.694;2023-02-15T15:45:54;17.73;;;13.53;;
16502;SDS011;53067;48.114;11.694;2023-02-15T15:51:27;17.27;;;13.47;;
16502;SDS011;53067;48.114;11.694;2023-02-15T15:53:42;15.70;;;13.10;;
16502;SDS011;53067;48.114;11.694;2023-02-15T15:56:17;17.67;;;14.00;;
16502;SDS011;53067;48.114;11.694;2023-02-15T15:58:48;19.20;;;14.33;;
16502;SDS011;53067;48.114;11.694;2023-02-15T16:01:27;18.23;;;13.80;;
16502;SDS011;53067;48.114;11.694;2023-02-15T16:03:59;18.13;;;13.63;;
16502;SDS011;53067;48.114;11.694;2023-02-15T16:06:34;19.93;;;13.93;;
16502;SDS011;53067;48.114;11.694;2023-02-15T16:09:24;15.83;;;12.73;;
16502;SDS011;53067;48.114;11.694;2023-02-15T16:11:58;19.03;;;14.20;;
16502;SDS011;53067;48.114;11.694;2023-02-15T16:14:38;17.53;;;14.20;;
16502;SDS011;53067;48.114;11.694;2023-02-15T16:17:13;18.30;;;13.80;;
16502;SDS011;53067;48.114;11.694;2023-02-15T16:19:39;16.23;;;12.53;;
16502;SDS011;53067;48.114;11.694;2023-02-15T16:22:13;18.93;;;14.10;;
16502;SDS011;53067;48.114;11.694;2023-02-15T16:24:46;22.43;;;14.97;;
16502;SDS011;53067;48.114;11.694;2023-02-15T16:27:38;20.37;;;14.20;;
16502;SDS011;53067;48.114;11.694;2023-02-15T16:30:27;21.20;;;14.23;;
16502;SDS011;53067;48.114;11.694;2023-02-15T16:33:07;20.53;;;14.33;;
16502;SDS011;53067;48.114;11.694;2023-02-15T16:35:58;22.30;;;14.43;;
16502;SDS011;53067;48.114;11.694;2023-02-15T16:41:11;19.40;;;14.20;;
16502;SDS011;53067;48.114;11.694;2023-02-15T16:43:44;26.93;;;16.77;;
16502;SDS011;53067;48.114;11.694;2023-02-15T16:46:20;30.30;;;16.93;;
16502;SDS011;53067;48.114;11.694;2023-02-15T16:48:57;24.07;;;16.27;;
16502;SDS011;53067;48.114;11.694;2023-02-15T16:51:28;33.30;;;15.80;;
16502;SDS011;53067;48.114;11.694;2023-02-15T16:54:05;25.60;;;13.87;;
16502;SDS011;53067;48.114;11.694;2023-02-15T16:56:29;27.57;;;15.47;;
16502;SDS011;53067;48.114;11.694;2023-02-15T16:58:58;31.30;;;15.07;;
16502;SDS011;53067;48.114;11.694;2023-02-15T17:01:28;38.53;;;15.00;;